Flight Track Log - Related Links

Times and Time Zones

All times are in EDT time to prevent confusion due to time zone crossing. See the N448ND flight status page for this flight to view local times or setup timezone preferences in your user account.

Time Position Orientation Groundspeed Altitude Reporting Facility
EDT Latitude Longitude Course Direction KTS MPH feet Rate Location/Type
Mon 01:52:21 PM 29.4617 -81.1753 108° East 69 79 1,200  Level Jacksonville Center
Mon 01:53:22 PM 29.4492 -81.1706 162° South 80 92 1,800 645 Climbing Jacksonville Center
Mon 01:54:22 PM 29.4306 -81.1853 215° Southwest 85 98 2,500 522 Climbing Jacksonville Center
Mon 01:55:17 PM 29.4119 -81.2047 222° Southwest 88 101 2,800 259 Climbing Jacksonville Center
Mon 01:56:18 PM 29.3914 -81.2217 216° Southwest 92 106 3,000 246 Climbing Jacksonville Center
Mon 01:57:19 PM 29.3664 -81.2317 199° South 96 110 3,300 393 Climbing Jacksonville Center
Mon 01:58:20 PM 29.3433 -81.2344 186° South 80 92 3,800 344 Climbing Jacksonville Center
Mon 01:59:21 PM 29.3183 -81.2397 190° South 90 104 4,000 98 Climbing Jacksonville Center
Mon 02:00:22 PM 29.2894 -81.2497 197° South 103 119 4,000  Level Jacksonville Center
Mon 02:01:22 PM 29.2644 -81.2619 203° Southwest 101 116 4,000  Level Jacksonville Center
Mon 02:02:54 PM 29.2333 -81.2833 211° Southwest 105 121 4,000 -41 Level Orlando TRACON
Mon 02:03:49 PM 29.2167 -81.3000 221° Southwest 106 122 3,900  Descending Orlando TRACON
Mon 02:04:49 PM 29.1833 -81.3167 204° Southwest 81 93 4,000 50 Climbing Orlando TRACON
Mon 02:05:49 PM 29.1667 -81.3167 180° South 107 123 4,000  Level Orlando TRACON
Mon 02:06:49 PM 29.1333 -81.3333 204° Southwest 99 114 4,000  Level Orlando TRACON
Mon 02:07:49 PM 29.1000 -81.3333 180° South 99 114 4,000  Level Orlando TRACON
Mon 02:08:55 PM 29.0667 -81.3333 180° South 106 122 4,000  Level Orlando TRACON
Mon 02:09:56 PM 29.0500 -81.3333 180° South 107 123 4,000 -50 Level Orlando TRACON
Mon 02:10:56 PM 29.0167 -81.3500 204° Southwest 99 114 3,900  Descending Orlando TRACON
Mon 02:12:02 PM 29.0000 -81.3500 180° South 102 117 4,000 48 Climbing Orlando TRACON
Mon 02:13:02 PM 28.9667 -81.3667 204° Southwest 101 116 4,000  Level Orlando TRACON
Mon 02:13:56 PM 28.9500 -81.3833 221° Southwest 105 121 4,000  Level Orlando TRACON
Mon 02:15:02 PM 28.9167 -81.4000 204° Southwest 106 122 4,000 -50 Level Orlando TRACON
Mon 02:15:57 PM 28.8833 -81.4167 204° Southwest 110 127 3,900  Descending Orlando TRACON
Mon 02:16:57 PM 28.8667 -81.4333 221° Southwest 107 123 4,000 105 Climbing Orlando TRACON
Mon 02:17:51 PM 28.8333 -81.4500 204° Southwest 104 120 4,100  Climbing Orlando TRACON
Mon 02:18:51 PM 28.8167 -81.4667 221° Southwest 101 116 4,000 -50 Descending Orlando TRACON
Mon 02:19:52 PM 28.7833 -81.4833 204° Southwest 109 125 4,000  Level Orlando TRACON
Mon 02:20:52 PM 28.7667 -81.5000 221° Southwest 106 122 4,000  Level Orlando TRACON
Mon 02:21:58 PM 28.7333 -81.5167 204° Southwest 104 120 4,000  Level Orlando TRACON
Mon 02:22:58 PM 28.7167 -81.5333 221° Southwest 110 127 4,000  Level Orlando TRACON
Mon 02:23:58 PM 28.6833 -81.5500 204° Southwest 104 120 4,000 -298 Level Orlando TRACON
Mon 02:24:59 PM 28.6667 -81.5667 221° Southwest 104 120 3,400 -500 Descending Orlando TRACON
Mon 02:25:58 PM 28.6333 -81.5833 204° Southwest 109 125 3,000 -159 Descending Orlando TRACON
Mon 02:26:52 PM 28.6167 -81.6000 221° Southwest 99 114 3,100  Climbing Orlando TRACON
Mon 02:27:47 PM 28.5833 -81.6000 180° South 105 121 3,000 -50 Descending Orlando TRACON
Mon 02:28:53 PM 28.5667 -81.6167 221° Southwest 102 117 3,000 -143 Level Orlando TRACON
Mon 02:29:53 PM 28.5333 -81.6167 180° South 93 107 2,700 -350 Descending Orlando TRACON
Mon 02:30:53 PM 28.5000 -81.6167 180° South 99 114 2,300 -350 Descending Orlando TRACON
Mon 02:31:53 PM 28.4833 -81.6167 180° South 97 112 2,000 -95 Descending Orlando TRACON
Mon 02:32:59 PM 28.4667 -81.6000 139° Southeast 89 102 2,100 47 Climbing Orlando TRACON
Mon 02:34:00 PM 28.4667 -81.5667 90° East 78 90 2,100  Level Orlando TRACON
Mon 02:35:06 PM 28.4667 -81.5333 90° East 88 101 2,100  Level Orlando TRACON
Mon 02:36:00 PM 28.4833 -81.5167 41° Northeast 88 101 2,100 -53 Level Orlando TRACON
Mon 02:37:00 PM 28.4833 -81.4833 90° East 93 107 2,000  Descending Orlando TRACON
Mon 02:38:00 PM 28.5000 -81.4667 41° Northeast 91 105 2,100  Climbing Orlando TRACON
Mon 02:39:00 PM 28.5000 -81.4333 90° East 71 82 2,000 -300 Descending Orlando TRACON
Mon 02:40:00 PM 28.5167 -81.4167 41° Northeast 84 97 1,500 -397 Descending Orlando TRACON
Mon 02:41:01 PM 28.5167 -81.3833 90° East 81 93 1,200 -425 Descending Orlando TRACON
Mon 02:42:07 PM 28.5333 -81.3667 41° Northeast 87 100 600 -187 Descending Orlando TRACON
Mon 02:44:14 PM 28.5500 -81.3167 69° East 73 84 600 257 Level Orlando TRACON
Mon 02:45:14 PM 28.5667 -81.3000 41° Northeast 73 84 1,400 476 Climbing Orlando TRACON
Mon 02:46:20 PM 28.5833 -81.2833 41° Northeast 103 119 1,600 48 Climbing Orlando TRACON
Mon 02:47:20 PM 28.6000 -81.2667 41° Northeast 81 93 1,500 50 Descending Orlando TRACON
Mon 02:48:20 PM 28.6000 -81.2333 90° East 89 102 1,700 365 Climbing Orlando TRACON
Mon 02:49:15 PM 28.6000 -81.2167 90° East 69 79 2,200 626 Climbing Orlando TRACON
Mon 02:50:15 PM 28.6000 -81.2000 90° East 68 78 2,900 400 Climbing Orlando TRACON
Mon 02:51:15 PM 28.6167 -81.1667 60° Northeast 99 114 3,000 150 Climbing Orlando TRACON
Mon 02:52:15 PM 28.6167 -81.1333 90° East 93 107 3,200 429 Climbing Orlando TRACON
Mon 02:53:21 PM 28.6000 -81.1167 139° Southeast 82 94 3,900 400 Climbing Orlando TRACON
Mon 02:54:15 PM 28.5833 -81.1000 139° Southeast 87 100 4,000 52 Climbing Orlando TRACON
Mon 02:55:16 PM 28.5667 -81.0667 120° Southeast 92 106 4,000  Level Orlando TRACON
Mon 02:56:22 PM 28.5500 -81.0500 139° Southeast 98 113 4,000  Level Orlando TRACON
Mon 02:57:22 PM 28.5333 -81.0167 120° Southeast 98 113 4,000  Level Orlando TRACON
Mon 02:58:22 PM 28.5167 -81.0000 139° Southeast 88 101 4,000  Level Orlando TRACON
Mon 02:59:16 PM 28.5167 -80.9833 90° East 87 100 4,000  Level Orlando TRACON
Mon 03:00:22 PM 28.5000 -80.9500 120° Southeast 91 105 4,000  Level Orlando TRACON
Mon 03:01:23 PM 28.4833 -80.9333 139° Southeast 102 117 4,000  Level Orlando TRACON
Mon 03:02:17 PM 28.4500 -80.9333 180° South 93 107 4,000  Level Orlando TRACON
Mon 03:03:17 PM 28.4333 -80.9333 180° South 95 109 4,000  Level Orlando TRACON
Mon 03:04:17 PM 28.4000 -80.9167 156° South 98 113 4,000 48 Level Orlando TRACON
Mon 03:05:23 PM 28.3667 -80.9167 180° South 98 113 4,100  Climbing Orlando TRACON
Mon 03:06:18 PM 28.3500 -80.9000 139° Southeast 95 109 4,000 -52 Descending Orlando TRACON
Mon 03:07:18 PM 28.3167 -80.9000 180° South 100 115 4,000  Level Orlando TRACON
Mon 03:08:12 PM 28.3000 -80.9000 180° South 99 114 4,000  Level Orlando TRACON
Mon 03:09:18 PM 28.2667 -80.8833 156° South 98 113 4,000  Level Orlando TRACON
Mon 03:10:28 PM 28.2378 -80.8825 179° South 97 112 4,000  Level Miami Center
Mon 03:11:30 PM 28.2103 -80.8772 170° South 101 116 4,000  Level Miami Center
Mon 03:12:32 PM 28.1800 -80.8700 168° South 95 109 4,000 48 Level Miami Center
Mon 03:13:34 PM 28.1553 -80.8658 172° South 93 107 4,100  Climbing Miami Center
Mon 03:14:36 PM 28.1294 -80.8622 173° South 93 107 4,000 -48 Descending Miami Center
Mon 03:15:38 PM 28.1000 -80.8564 170° South 96 110 4,000  Level Miami Center
Mon 03:16:40 PM 28.0731 -80.8533 174° South 95 109 4,000  Level Miami Center
Mon 03:17:42 PM 28.0461 -80.8503 174° South 95 109 4,000 48 Level Miami Center
Mon 03:18:44 PM 28.0208 -80.8450 170° South 95 109 4,100 48 Climbing Miami Center
Mon 03:19:46 PM 27.9922 -80.8383 168° South 100 115 4,100  Level Miami Center
Mon 03:20:47 PM 27.9647 -80.8314 167° South 100 115 4,100  Level Miami Center
Mon 03:21:49 PM 27.9378 -80.8250 168° South 98 113 4,100 -48 Level Miami Center
Mon 03:22:51 PM 27.9117 -80.8172 165° South 96 110 4,000  Descending Miami Center
Mon 03:23:53 PM 27.8956 -80.7942 128° Southeast 91 105 4,100 48 Climbing Miami Center
Mon 03:24:55 PM 27.8803 -80.7736 130° Southeast 90 104 4,100 -48 Level Miami Center
Mon 03:25:57 PM 27.8631 -80.7514 131° Southeast 90 104 4,000 -48 Descending Miami Center
Mon 03:26:59 PM 27.8458 -80.7286 131° Southeast 90 104 4,000  Level Miami Center
Mon 03:28:01 PM 27.8300 -80.7069 130° Southeast 90 104 4,000  Level Miami Center
Mon 03:29:03 PM 27.8150 -80.6847 127° Southeast 87 100 4,000  Level Miami Center
Mon 03:30:05 PM 27.8000 -80.6639 129° Southeast 87 100 4,000  Level Miami Center
Mon 03:31:07 PM 27.7858 -80.6397 124° Southeast 88 101 4,000 48 Level Miami Center
Mon 03:32:09 PM 27.7711 -80.6156 125° Southeast 88 101 4,100  Climbing Miami Center
Mon 03:33:11 PM 27.7525 -80.5942 135° Southeast 88 101 4,000  Descending Miami Center
Mon 03:34:13 PM 27.7353 -80.5728 132° Southeast 88 101 4,100 48 Climbing Miami Center
Mon 03:35:15 PM 27.7206 -80.5486 125° Southeast 89 102 4,100 -97 Level Miami Center
Mon 03:36:17 PM 27.7058 -80.5278 129° Southeast 88 101 3,900 -484 Descending Miami Center
Mon 03:37:19 PM 27.6886 -80.5039 129° Southeast 90 104 3,100 -387 Descending Miami Center
Mon 03:38:21 PM 27.6711 -80.4819 132° Southeast 90 104 3,100  Level Miami Center
Mon 03:39:23 PM 27.6456 -80.4697 157° South 97 112 3,100 -145 Level Miami Center
Mon 03:40:25 PM 27.6217 -80.4544 150° Southeast 97 112 2,800 -194 Descending Miami Center
Mon 03:41:27 PM 27.5989 -80.4394 150° Southeast 94 108 2,700  Descending Miami Center
Mon 03:42:29 PM 27.5786 -80.4267 151° Southeast 88 101 2,800 -194 Climbing Miami Center
Mon 03:43:31 PM 27.5583 -80.4158 155° Southeast 80 92 2,300 -677 Descending Miami Center
Mon 03:44:33 PM 27.5389 -80.4033 150° Southeast 78 90 1,400 -774 Descending Miami Center
Mon 03:45:35 PM 27.5183 -80.3906 151° Southeast 79 91 700 -532 Descending Miami Center
Mon 03:46:37 PM 27.5006 -80.3775 147° Southeast 76 87 300 -387 Descending Miami Center

Login

Don't have an account? Register now (free) for customized features, flight alerts, and more!